sensor_id;sensor_type;location;lat;lon;timestamp;P1;durP1;ratioP1;P2;durP2;ratioP2
14470;SDS011;7321;50.802;4.336;2023-11-21T00:00:31;37.53;;;24.67;;
14470;SDS011;7321;50.802;4.336;2023-11-21T00:02:57;34.73;;;22.73;;
14470;SDS011;7321;50.802;4.336;2023-11-21T00:05:23;38.90;;;25.23;;
14470;SDS011;7321;50.802;4.336;2023-11-21T00:07:48;36.83;;;23.73;;
14470;SDS011;7321;50.802;4.336;2023-11-21T00:10:14;39.37;;;24.33;;
14470;SDS011;7321;50.802;4.336;2023-11-21T00:12:41;32.90;;;22.77;;
14470;SDS011;7321;50.802;4.336;2023-11-21T00:15:07;33.73;;;21.97;;
14470;SDS011;7321;50.802;4.336;2023-11-21T00:17:37;39.40;;;24.40;;
14470;SDS011;7321;50.802;4.336;2023-11-21T00:20:04;34.83;;;23.10;;
14470;SDS011;7321;50.802;4.336;2023-11-21T00:22:33;33.47;;;22.57;;
14470;SDS011;7321;50.802;4.336;2023-11-21T00:24:59;35.57;;;22.90;;
14470;SDS011;7321;50.802;4.336;2023-11-21T00:27:25;33.37;;;22.43;;
14470;SDS011;7321;50.802;4.336;2023-11-21T00:29:51;38.80;;;25.33;;
14470;SDS011;7321;50.802;4.336;2023-11-21T00:32:16;37.80;;;24.53;;
14470;SDS011;7321;50.802;4.336;2023-11-21T00:34:42;35.67;;;23.03;;
14470;SDS011;7321;50.802;4.336;2023-11-21T00:37:08;38.47;;;23.80;;
14470;SDS011;7321;50.802;4.336;2023-11-21T00:39:34;35.53;;;24.87;;
14470;SDS011;7321;50.802;4.336;2023-11-21T00:42:00;39.70;;;23.90;;
14470;SDS011;7321;50.802;4.336;2023-11-21T00:44:26;32.87;;;22.93;;
14470;SDS011;7321;50.802;4.336;2023-11-21T00:46:52;36.23;;;23.10;;
14470;SDS011;7321;50.802;4.336;2023-11-21T00:49:18;34.63;;;22.20;;
14470;SDS011;7321;50.802;4.336;2023-11-21T00:51:44;36.37;;;23.87;;
14470;SDS011;7321;50.802;4.336;2023-11-21T00:54:10;36.03;;;25.10;;
14470;SDS011;7321;50.802;4.336;2023-11-21T00:56:36;37.20;;;22.87;;
14470;SDS011;7321;50.802;4.336;2023-11-21T00:59:02;33.93;;;22.60;;
14470;SDS011;7321;50.802;4.336;2023-11-21T01:01:30;36.87;;;22.77;;
14470;SDS011;7321;50.802;4.336;2023-11-21T01:03:55;35.60;;;24.30;;
14470;SDS011;7321;50.802;4.336;2023-11-21T01:06:21;37.27;;;24.57;;
14470;SDS011;7321;50.802;4.336;2023-11-21T01:08:47;37.90;;;24.43;;
14470;SDS011;7321;50.802;4.336;2023-11-21T01:11:13;31.87;;;22.90;;
14470;SDS011;7321;50.802;4.336;2023-11-21T01:13:40;34.83;;;23.17;;
14470;SDS011;7321;50.802;4.336;2023-11-21T01:16:06;36.63;;;22.60;;
14470;SDS011;7321;50.802;4.336;2023-11-21T01:18:32;34.30;;;23.87;;
14470;SDS011;7321;50.802;4.336;2023-11-21T01:20:58;36.53;;;23.40;;
14470;SDS011;7321;50.802;4.336;2023-11-21T01:23:27;36.47;;;23.77;;
14470;SDS011;7321;50.802;4.336;2023-11-21T01:25:54;34.53;;;23.33;;
14470;SDS011;7321;50.802;4.336;2023-11-21T01:28:21;34.67;;;22.57;;
14470;SDS011;7321;50.802;4.336;2023-11-21T01:30:47;37.87;;;23.23;;
14470;SDS011;7321;50.802;4.336;2023-11-21T01:33:13;39.33;;;23.60;;
14470;SDS011;7321;50.802;4.336;2023-11-21T01:35:41;35.37;;;23.13;;
14470;SDS011;7321;50.802;4.336;2023-11-21T01:38:07;35.80;;;22.80;;
14470;SDS011;7321;50.802;4.336;2023-11-21T01:40:33;35.40;;;22.70;;
14470;SDS011;7321;50.802;4.336;2023-11-21T01:43:00;34.37;;;22.57;;
14470;SDS011;7321;50.802;4.336;2023-11-21T01:45:28;31.60;;;21.80;;
14470;SDS011;7321;50.802;4.336;2023-11-21T01:47:56;33.03;;;22.30;;
14470;SDS011;7321;50.802;4.336;2023-11-21T01:50:23;32.73;;;21.47;;
14470;SDS011;7321;50.802;4.336;2023-11-21T01:52:50;34.13;;;22.03;;
14470;SDS011;7321;50.802;4.336;2023-11-21T01:55:17;35.57;;;21.83;;
14470;SDS011;7321;50.802;4.336;2023-11-21T01:57:44;30.73;;;21.03;;
14470;SDS011;7321;50.802;4.336;2023-11-21T02:00:11;31.17;;;21.03;;
14470;SDS011;7321;50.802;4.336;2023-11-21T02:02:44;35.37;;;22.67;;
14470;SDS011;7321;50.802;4.336;2023-11-21T02:05:14;32.87;;;21.33;;
14470;SDS011;7321;50.802;4.336;2023-11-21T02:07:42;30.57;;;21.23;;
14470;SDS011;7321;50.802;4.336;2023-11-21T02:10:08;30.70;;;21.27;;
14470;SDS011;7321;50.802;4.336;2023-11-21T02:12:34;28.63;;;21.17;;
14470;SDS011;7321;50.802;4.336;2023-11-21T02:15:02;31.63;;;20.73;;
14470;SDS011;7321;50.802;4.336;2023-11-21T02:17:30;30.47;;;21.00;;
14470;SDS011;7321;50.802;4.336;2023-11-21T02:19:57;34.03;;;22.67;;
14470;SDS011;7321;50.802;4.336;2023-11-21T02:22:25;33.40;;;21.70;;
14470;SDS011;7321;50.802;4.336;2023-11-21T02:24:55;41.27;;;23.00;;
14470;SDS011;7321;50.802;4.336;2023-11-21T02:27:23;29.33;;;20.57;;
14470;SDS011;7321;50.802;4.336;2023-11-21T02:29:49;31.33;;;22.47;;
14470;SDS011;7321;50.802;4.336;2023-11-21T02:32:15;33.23;;;22.40;;
14470;SDS011;7321;50.802;4.336;2023-11-21T02:34:44;31.60;;;22.73;;
14470;SDS011;7321;50.802;4.336;2023-11-21T02:37:10;32.80;;;22.53;;
14470;SDS011;7321;50.802;4.336;2023-11-21T02:39:36;32.77;;;22.80;;
14470;SDS011;7321;50.802;4.336;2023-11-21T02:42:03;33.63;;;22.57;;
14470;SDS011;7321;50.802;4.336;2023-11-21T02:44:29;34.10;;;22.43;;
14470;SDS011;7321;50.802;4.336;2023-11-21T02:46:54;31.87;;;21.13;;
14470;SDS011;7321;50.802;4.336;2023-11-21T02:49:22;39.13;;;22.10;;
14470;SDS011;7321;50.802;4.336;2023-11-21T02:51:48;32.53;;;21.13;;
14470;SDS011;7321;50.802;4.336;2023-11-21T02:54:14;31.17;;;22.67;;
14470;SDS011;7321;50.802;4.336;2023-11-21T02:56:42;32.80;;;22.20;;
14470;SDS011;7321;50.802;4.336;2023-11-21T02:59:07;32.47;;;22.60;;
14470;SDS011;7321;50.802;4.336;2023-11-21T03:01:34;34.40;;;23.17;;
14470;SDS011;7321;50.802;4.336;2023-11-21T03:03:59;32.07;;;22.90;;
14470;SDS011;7321;50.802;4.336;2023-11-21T03:06:26;30.43;;;21.90;;
14470;SDS011;7321;50.802;4.336;2023-11-21T03:08:52;34.07;;;22.77;;
14470;SDS011;7321;50.802;4.336;2023-11-21T03:11:18;30.80;;;22.87;;
14470;SDS011;7321;50.802;4.336;2023-11-21T03:13:44;29.27;;;22.40;;
14470;SDS011;7321;50.802;4.336;2023-11-21T03:16:10;31.40;;;23.17;;
14470;SDS011;7321;50.802;4.336;2023-11-21T03:18:37;31.03;;;21.33;;
14470;SDS011;7321;50.802;4.336;2023-11-21T03:21:04;34.27;;;22.57;;
14470;SDS011;7321;50.802;4.336;2023-11-21T03:23:30;35.40;;;21.83;;
14470;SDS011;7321;50.802;4.336;2023-11-21T03:25:56;32.27;;;22.53;;
14470;SDS011;7321;50.802;4.336;2023-11-21T03:28:23;31.77;;;23.60;;
14470;SDS011;7321;50.802;4.336;2023-11-21T03:30:49;32.17;;;22.67;;
14470;SDS011;7321;50.802;4.336;2023-11-21T03:33:14;32.93;;;22.20;;
14470;SDS011;7321;50.802;4.336;2023-11-21T03:35:40;33.50;;;23.50;;
14470;SDS011;7321;50.802;4.336;2023-11-21T03:38:07;37.33;;;23.90;;
14470;SDS011;7321;50.802;4.336;2023-11-21T03:40:34;33.37;;;24.43;;
14470;SDS011;7321;50.802;4.336;2023-11-21T03:43:00;33.50;;;23.27;;
14470;SDS011;7321;50.802;4.336;2023-11-21T03:45:26;36.67;;;24.47;;
14470;SDS011;7321;50.802;4.336;2023-11-21T03:47:52;35.57;;;23.93;;
14470;SDS011;7321;50.802;4.336;2023-11-21T03:50:18;36.30;;;25.27;;
14470;SDS011;7321;50.802;4.336;2023-11-21T03:52:43;33.80;;;23.67;;
14470;SDS011;7321;50.802;4.336;2023-11-21T03:55:09;36.63;;;24.97;;
14470;SDS011;7321;50.802;4.336;2023-11-21T03:57:35;35.90;;;24.80;;
14470;SDS011;7321;50.802;4.336;2023-11-21T04:00:02;36.83;;;24.93;;
14470;SDS011;7321;50.802;4.336;2023-11-21T04:02:34;36.17;;;24.90;;
14470;SDS011;7321;50.802;4.336;2023-11-21T04:05:00;36.67;;;24.00;;
14470;SDS011;7321;50.802;4.336;2023-11-21T04:07:26;34.03;;;23.77;;
14470;SDS011;7321;50.802;4.336;2023-11-21T04:09:52;39.57;;;24.70;;
14470;SDS011;7321;50.802;4.336;2023-11-21T04:12:19;32.23;;;23.20;;
14470;SDS011;7321;50.802;4.336;2023-11-21T04:14:44;36.67;;;25.23;;
14470;SDS011;7321;50.802;4.336;2023-11-21T04:17:10;37.47;;;25.27;;
14470;SDS011;7321;50.802;4.336;2023-11-21T04:19:36;35.10;;;24.97;;
14470;SDS011;7321;50.802;4.336;2023-11-21T04:22:02;34.53;;;24.33;;
14470;SDS011;7321;50.802;4.336;2023-11-21T04:24:29;34.40;;;24.07;;
14470;SDS011;7321;50.802;4.336;2023-11-21T04:26:55;36.40;;;24.40;;
14470;SDS011;7321;50.802;4.336;2023-11-21T04:29:21;35.27;;;24.73;;
14470;SDS011;7321;50.802;4.336;2023-11-21T04:31:47;36.20;;;24.30;;
14470;SDS011;7321;50.802;4.336;2023-11-21T04:34:14;31.53;;;24.17;;
14470;SDS011;7321;50.802;4.336;2023-11-21T04:36:40;32.13;;;24.10;;
14470;SDS011;7321;50.802;4.336;2023-11-21T04:39:06;33.17;;;23.30;;
14470;SDS011;7321;50.802;4.336;2023-11-21T04:41:32;33.57;;;24.23;;
14470;SDS011;7321;50.802;4.336;2023-11-21T04:43:58;36.33;;;24.17;;
14470;SDS011;7321;50.802;4.336;2023-11-21T04:46:25;34.07;;;23.50;;
14470;SDS011;7321;50.802;4.336;2023-11-21T04:48:51;29.77;;;23.10;;
14470;SDS011;7321;50.802;4.336;2023-11-21T04:51:17;31.30;;;22.87;;
14470;SDS011;7321;50.802;4.336;2023-11-21T04:53:43;29.97;;;23.17;;
14470;SDS011;7321;50.802;4.336;2023-11-21T04:56:09;32.80;;;23.77;;
14470;SDS011;7321;50.802;4.336;2023-11-21T04:58:34;33.97;;;24.70;;
14470;SDS011;7321;50.802;4.336;2023-11-21T05:01:01;32.83;;;23.77;;
14470;SDS011;7321;50.802;4.336;2023-11-21T05:03:26;31.20;;;24.70;;
14470;SDS011;7321;50.802;4.336;2023-11-21T05:05:55;34.10;;;23.60;;
14470;SDS011;7321;50.802;4.336;2023-11-21T05:08:21;30.97;;;23.97;;
14470;SDS011;7321;50.802;4.336;2023-11-21T05:10:47;32.27;;;23.87;;
14470;SDS011;7321;50.802;4.336;2023-11-21T05:13:14;33.87;;;24.67;;
14470;SDS011;7321;50.802;4.336;2023-11-21T05:15:43;36.90;;;25.23;;
14470;SDS011;7321;50.802;4.336;2023-11-21T05:18:09;39.43;;;27.27;;
14470;SDS011;7321;50.802;4.336;2023-11-21T05:20:35;38.17;;;27.47;;
14470;SDS011;7321;50.802;4.336;2023-11-21T05:23:01;33.03;;;23.13;;
14470;SDS011;7321;50.802;4.336;2023-11-21T05:25:27;29.50;;;23.50;;
14470;SDS011;7321;50.802;4.336;2023-11-21T05:27:53;32.63;;;22.50;;
14470;SDS011;7321;50.802;4.336;2023-11-21T05:30:20;31.10;;;23.53;;
14470;SDS011;7321;50.802;4.336;2023-11-21T05:32:47;31.80;;;22.83;;
14470;SDS011;7321;50.802;4.336;2023-11-21T05:35:14;33.40;;;23.17;;
14470;SDS011;7321;50.802;4.336;2023-11-21T05:37:41;31.10;;;23.20;;
14470;SDS011;7321;50.802;4.336;2023-11-21T05:40:07;34.07;;;24.03;;
14470;SDS011;7321;50.802;4.336;2023-11-21T05:42:37;32.90;;;23.37;;
14470;SDS011;7321;50.802;4.336;2023-11-21T05:45:04;30.23;;;23.10;;
14470;SDS011;7321;50.802;4.336;2023-11-21T05:47:40;32.30;;;23.20;;
14470;SDS011;7321;50.802;4.336;2023-11-21T05:50:08;30.80;;;22.53;;
14470;SDS011;7321;50.802;4.336;2023-11-21T05:52:40;31.67;;;22.70;;
14470;SDS011;7321;50.802;4.336;2023-11-21T05:55:06;34.07;;;23.07;;
14470;SDS011;7321;50.802;4.336;2023-11-21T05:57:33;31.97;;;23.33;;
14470;SDS011;7321;50.802;4.336;2023-11-21T06:00:05;32.00;;;23.97;;
14470;SDS011;7321;50.802;4.336;2023-11-21T06:02:39;33.53;;;23.43;;
14470;SDS011;7321;50.802;4.336;2023-11-21T06:05:08;33.00;;;22.93;;
14470;SDS011;7321;50.802;4.336;2023-11-21T06:07:57;30.10;;;22.73;;
14470;SDS011;7321;50.802;4.336;2023-11-21T06:10:24;34.17;;;24.00;;
14470;SDS011;7321;50.802;4.336;2023-11-21T06:12:50;34.27;;;24.20;;
14470;SDS011;7321;50.802;4.336;2023-11-21T06:15:59;32.17;;;22.90;;
14470;SDS011;7321;50.802;4.336;2023-11-21T06:18:30;32.63;;;22.80;;
14470;SDS011;7321;50.802;4.336;2023-11-21T06:20:56;31.47;;;22.10;;
14470;SDS011;7321;50.802;4.336;2023-11-21T06:23:26;29.60;;;22.30;;
14470;SDS011;7321;50.802;4.336;2023-11-21T06:26:10;30.50;;;22.60;;
14470;SDS011;7321;50.802;4.336;2023-11-21T06:28:39;36.07;;;23.23;;
14470;SDS011;7321;50.802;4.336;2023-11-21T06:31:06;32.50;;;21.83;;
14470;SDS011;7321;50.802;4.336;2023-11-21T06:33:32;29.57;;;21.93;;
14470;SDS011;7321;50.802;4.336;2023-11-21T06:35:58;30.97;;;22.43;;
14470;SDS011;7321;50.802;4.336;2023-11-21T06:38:25;32.47;;;23.00;;
14470;SDS011;7321;50.802;4.336;2023-11-21T06:40:58;34.30;;;23.23;;
14470;SDS011;7321;50.802;4.336;2023-11-21T06:43:27;29.27;;;22.83;;
14470;SDS011;7321;50.802;4.336;2023-11-21T06:46:26;29.53;;;21.73;;
14470;SDS011;7321;50.802;4.336;2023-11-21T06:48:55;31.57;;;22.43;;
14470;SDS011;7321;50.802;4.336;2023-11-21T06:51:21;29.40;;;23.40;;
14470;SDS011;7321;50.802;4.336;2023-11-21T06:53:47;31.20;;;23.20;;
14470;SDS011;7321;50.802;4.336;2023-11-21T06:56:19;29.40;;;22.83;;
14470;SDS011;7321;50.802;4.336;2023-11-21T06:58:45;38.50;;;26.50;;
14470;SDS011;7321;50.802;4.336;2023-11-21T07:01:12;32.60;;;25.60;;
14470;SDS011;7321;50.802;4.336;2023-11-21T07:03:39;33.47;;;24.67;;
14470;SDS011;7321;50.802;4.336;2023-11-21T07:06:08;39.37;;;28.40;;
14470;SDS011;7321;50.802;4.336;2023-11-21T07:08:34;34.73;;;25.33;;
14470;SDS011;7321;50.802;4.336;2023-11-21T07:11:03;30.90;;;23.93;;
14470;SDS011;7321;50.802;4.336;2023-11-21T07:13:30;28.57;;;22.93;;
14470;SDS011;7321;50.802;4.336;2023-11-21T07:15:56;33.20;;;24.10;;
14470;SDS011;7321;50.802;4.336;2023-11-21T07:18:23;34.60;;;24.60;;
14470;SDS011;7321;50.802;4.336;2023-11-21T07:20:49;33.27;;;22.73;;
14470;SDS011;7321;50.802;4.336;2023-11-21T07:23:15;36.57;;;24.10;;
14470;SDS011;7321;50.802;4.336;2023-11-21T07:25:41;35.80;;;23.97;;
14470;SDS011;7321;50.802;4.336;2023-11-21T07:28:08;30.13;;;23.27;;
14470;SDS011;7321;50.802;4.336;2023-11-21T07:30:34;38.60;;;24.50;;
14470;SDS011;7321;50.802;4.336;2023-11-21T07:33:00;33.60;;;23.60;;
14470;SDS011;7321;50.802;4.336;2023-11-21T07:35:26;30.80;;;23.77;;
14470;SDS011;7321;50.802;4.336;2023-11-21T07:37:52;29.20;;;22.73;;
14470;SDS011;7321;50.802;4.336;2023-11-21T07:40:17;30.73;;;23.93;;
14470;SDS011;7321;50.802;4.336;2023-11-21T07:42:43;31.60;;;24.00;;
14470;SDS011;7321;50.802;4.336;2023-11-21T07:45:09;39.43;;;24.60;;
14470;SDS011;7321;50.802;4.336;2023-11-21T07:47:35;35.27;;;24.13;;
14470;SDS011;7321;50.802;4.336;2023-11-21T07:50:04;37.97;;;24.67;;
14470;SDS011;7321;50.802;4.336;2023-11-21T07:52:32;34.77;;;24.13;;
14470;SDS011;7321;50.802;4.336;2023-11-21T07:54:58;38.07;;;25.37;;
14470;SDS011;7321;50.802;4.336;2023-11-21T07:57:24;33.73;;;24.37;;
14470;SDS011;7321;50.802;4.336;2023-11-21T07:59:51;38.27;;;26.50;;
14470;SDS011;7321;50.802;4.336;2023-11-21T08:02:18;38.10;;;25.17;;
14470;SDS011;7321;50.802;4.336;2023-11-21T08:04:44;38.87;;;25.50;;
14470;SDS011;7321;50.802;4.336;2023-11-21T08:07:10;38.73;;;24.77;;
14470;SDS011;7321;50.802;4.336;2023-11-21T08:09:36;38.23;;;24.77;;
14470;SDS011;7321;50.802;4.336;2023-11-21T08:12:02;44.83;;;25.77;;
14470;SDS011;7321;50.802;4.336;2023-11-21T08:14:28;39.10;;;25.97;;
14470;SDS011;7321;50.802;4.336;2023-11-21T08:16:54;39.13;;;25.17;;
14470;SDS011;7321;50.802;4.336;2023-11-21T08:19:23;43.73;;;26.47;;
14470;SDS011;7321;50.802;4.336;2023-11-21T08:21:50;43.87;;;27.37;;
14470;SDS011;7321;50.802;4.336;2023-11-21T08:24:16;44.33;;;26.17;;
14470;SDS011;7321;50.802;4.336;2023-11-21T08:26:42;46.97;;;26.23;;
14470;SDS011;7321;50.802;4.336;2023-11-21T08:29:08;45.17;;;27.17;;
14470;SDS011;7321;50.802;4.336;2023-11-21T08:31:34;47.73;;;26.23;;
14470;SDS011;7321;50.802;4.336;2023-11-21T08:34:00;41.00;;;26.87;;
14470;SDS011;7321;50.802;4.336;2023-11-21T08:36:27;45.63;;;27.00;;
14470;SDS011;7321;50.802;4.336;2023-11-21T08:38:53;47.27;;;27.23;;
14470;SDS011;7321;50.802;4.336;2023-11-21T08:41:19;41.73;;;27.03;;
14470;SDS011;7321;50.802;4.336;2023-11-21T08:43:47;44.87;;;26.90;;
14470;SDS011;7321;50.802;4.336;2023-11-21T08:46:15;41.43;;;26.83;;
14470;SDS011;7321;50.802;4.336;2023-11-21T08:48:43;43.50;;;26.53;;
14470;SDS011;7321;50.802;4.336;2023-11-21T08:51:09;44.87;;;27.13;;
14470;SDS011;7321;50.802;4.336;2023-11-21T08:53:39;44.53;;;27.73;;
14470;SDS011;7321;50.802;4.336;2023-11-21T08:56:05;52.50;;;27.67;;
14470;SDS011;7321;50.802;4.336;2023-11-21T08:58:31;43.53;;;25.60;;
14470;SDS011;7321;50.802;4.336;2023-11-21T09:00:57;47.00;;;27.30;;
14470;SDS011;7321;50.802;4.336;2023-11-21T09:03:23;51.63;;;28.37;;
14470;SDS011;7321;50.802;4.336;2023-11-21T09:05:50;46.87;;;27.30;;
14470;SDS011;7321;50.802;4.336;2023-11-21T09:08:16;50.43;;;30.23;;
14470;SDS011;7321;50.802;4.336;2023-11-21T09:10:42;54.00;;;28.70;;
14470;SDS011;7321;50.802;4.336;2023-11-21T09:13:10;82.53;;;30.57;;
14470;SDS011;7321;50.802;4.336;2023-11-21T09:15:36;49.17;;;28.27;;
14470;SDS011;7321;50.802;4.336;2023-11-21T09:18:02;53.00;;;28.17;;
14470;SDS011;7321;50.802;4.336;2023-11-21T09:20:28;62.00;;;28.60;;
14470;SDS011;7321;50.802;4.336;2023-11-21T09:22:54;48.57;;;29.40;;
14470;SDS011;7321;50.802;4.336;2023-11-21T09:25:21;53.83;;;29.10;;
14470;SDS011;7321;50.802;4.336;2023-11-21T09:27:47;48.30;;;28.70;;
14470;SDS011;7321;50.802;4.336;2023-11-21T09:30:13;51.60;;;28.30;;
14470;SDS011;7321;50.802;4.336;2023-11-21T09:32:39;53.50;;;28.47;;
14470;SDS011;7321;50.802;4.336;2023-11-21T09:35:06;50.60;;;29.50;;
14470;SDS011;7321;50.802;4.336;2023-11-21T09:37:35;50.83;;;29.57;;
14470;SDS011;7321;50.802;4.336;2023-11-21T09:40:01;53.07;;;29.80;;
14470;SDS011;7321;50.802;4.336;2023-11-21T09:42:40;56.07;;;30.73;;
14470;SDS011;7321;50.802;4.336;2023-11-21T09:45:27;59.33;;;31.27;;
14470;SDS011;7321;50.802;4.336;2023-11-21T09:47:54;54.47;;;31.10;;
14470;SDS011;7321;50.802;4.336;2023-11-21T09:50:21;47.93;;;30.80;;
14470;SDS011;7321;50.802;4.336;2023-11-21T09:53:09;50.10;;;28.83;;
14470;SDS011;7321;50.802;4.336;2023-11-21T09:55:47;51.20;;;30.83;;
14470;SDS011;7321;50.802;4.336;2023-11-21T09:58:16;55.37;;;31.37;;
14470;SDS011;7321;50.802;4.336;2023-11-21T10:00:45;54.50;;;28.53;;
14470;SDS011;7321;50.802;4.336;2023-11-21T10:03:12;51.43;;;29.97;;
14470;SDS011;7321;50.802;4.336;2023-11-21T10:05:38;56.93;;;29.97;;
14470;SDS011;7321;50.802;4.336;2023-11-21T10:08:09;54.07;;;29.67;;
14470;SDS011;7321;50.802;4.336;2023-11-21T10:10:42;48.53;;;29.70;;
14470;SDS011;7321;50.802;4.336;2023-11-21T10:13:13;51.83;;;29.73;;
14470;SDS011;7321;50.802;4.336;2023-11-21T10:15:41;46.20;;;27.10;;
14470;SDS011;7321;50.802;4.336;2023-11-21T10:18:13;50.53;;;28.60;;
14470;SDS011;7321;50.802;4.336;2023-11-21T10:20:40;46.57;;;27.77;;
14470;SDS011;7321;50.802;4.336;2023-11-21T10:23:07;44.60;;;26.53;;
14470;SDS011;7321;50.802;4.336;2023-11-21T10:25:36;41.30;;;25.30;;
14470;SDS011;7321;50.802;4.336;2023-11-21T10:28:03;38.93;;;24.57;;
14470;SDS011;7321;50.802;4.336;2023-11-21T10:30:33;31.27;;;22.27;;
14470;SDS011;7321;50.802;4.336;2023-11-21T10:33:03;27.00;;;19.97;;
14470;SDS011;7321;50.802;4.336;2023-11-21T10:35:43;21.53;;;18.40;;
14470;SDS011;7321;50.802;4.336;2023-11-21T10:38:19;21.40;;;16.33;;
14470;SDS011;7321;50.802;4.336;2023-11-21T10:40:51;22.77;;;17.83;;
14470;SDS011;7321;50.802;4.336;2023-11-21T10:43:17;20.93;;;16.97;;
14470;SDS011;7321;50.802;4.336;2023-11-21T10:45:43;23.67;;;18.03;;
14470;SDS011;7321;50.802;4.336;2023-11-21T10:48:10;26.63;;;18.63;;
14470;SDS011;7321;50.802;4.336;2023-11-21T10:50:41;24.37;;;18.30;;
14470;SDS011;7321;50.802;4.336;2023-11-21T10:53:07;22.77;;;18.00;;
14470;SDS011;7321;50.802;4.336;2023-11-21T10:55:34;25.93;;;18.97;;
14470;SDS011;7321;50.802;4.336;2023-11-21T10:58:01;24.73;;;18.30;;
14470;SDS011;7321;50.802;4.336;2023-11-21T11:00:30;25.70;;;18.80;;
14470;SDS011;7321;50.802;4.336;2023-11-21T11:02:57;24.67;;;18.63;;
14470;SDS011;7321;50.802;4.336;2023-11-21T11:05:24;23.20;;;18.13;;
14470;SDS011;7321;50.802;4.336;2023-11-21T11:08:04;26.87;;;19.20;;
14470;SDS011;7321;50.802;4.336;2023-11-21T11:10:31;26.50;;;18.63;;
14470;SDS011;7321;50.802;4.336;2023-11-21T11:12:57;29.07;;;20.13;;
14470;SDS011;7321;50.802;4.336;2023-11-21T11:15:24;28.87;;;20.77;;
14470;SDS011;7321;50.802;4.336;2023-11-21T11:17:52;28.33;;;20.90;;
14470;SDS011;7321;50.802;4.336;2023-11-21T11:20:22;29.47;;;21.53;;
14470;SDS011;7321;50.802;4.336;2023-11-21T11:25:30;29.70;;;22.53;;
14470;SDS011;7321;50.802;4.336;2023-11-21T11:28:20;33.33;;;22.47;;
14470;SDS011;7321;50.802;4.336;2023-11-21T11:36:25;35.70;;;24.17;;
14470;SDS011;7321;50.802;4.336;2023-11-21T11:42:01;33.13;;;23.70;;
14470;SDS011;7321;50.802;4.336;2023-11-21T11:47:16;32.50;;;23.07;;
14470;SDS011;7321;50.802;4.336;2023-11-21T11:49:58;31.10;;;23.80;;
14470;SDS011;7321;50.802;4.336;2023-11-21T11:52:31;30.57;;;23.90;;
14470;SDS011;7321;50.802;4.336;2023-11-21T11:54:58;30.53;;;23.47;;
14470;SDS011;7321;50.802;4.336;2023-11-21T11:57:25;30.53;;;23.90;;
14470;SDS011;7321;50.802;4.336;2023-11-21T12:05:22;35.07;;;26.43;;
14470;SDS011;7321;50.802;4.336;2023-11-21T12:10:23;44.10;;;39.23;;
14470;SDS011;7321;50.802;4.336;2023-11-21T12:13:00;26.73;;;23.90;;
14470;SDS011;7321;50.802;4.336;2023-11-21T12:15:27;34.17;;;30.77;;
14470;SDS011;7321;50.802;4.336;2023-11-21T12:17:56;16.77;;;15.07;;
14470;SDS011;7321;50.802;4.336;2023-11-21T12:20:26;18.77;;;14.70;;
14470;SDS011;7321;50.802;4.336;2023-11-21T12:22:53;18.07;;;16.13;;
14470;SDS011;7321;50.802;4.336;2023-11-21T12:25:28;44.73;;;40.17;;
14470;SDS011;7321;50.802;4.336;2023-11-21T12:27:56;20.00;;;14.97;;
14470;SDS011;7321;50.802;4.336;2023-11-21T12:30:23;18.07;;;16.27;;
14470;SDS011;7321;50.802;4.336;2023-11-21T12:32:53;15.07;;;13.47;;
14470;SDS011;7321;50.802;4.336;2023-11-21T12:35:24;23.67;;;21.23;;
14470;SDS011;7321;50.802;4.336;2023-11-21T12:37:52;17.40;;;13.93;;
14470;SDS011;7321;50.802;4.336;2023-11-21T12:40:19;20.83;;;18.67;;
14470;SDS011;7321;50.802;4.336;2023-11-21T12:42:50;19.70;;;16.67;;
14470;SDS011;7321;50.802;4.336;2023-11-21T12:45:22;33.07;;;29.87;;
14470;SDS011;7321;50.802;4.336;2023-11-21T12:47:51;23.27;;;18.47;;
14470;SDS011;7321;50.802;4.336;2023-11-21T12:50:24;23.20;;;20.87;;
14470;SDS011;7321;50.802;4.336;2023-11-21T12:52:54;17.20;;;11.80;;
14470;SDS011;7321;50.802;4.336;2023-11-21T12:55:24;15.50;;;12.80;;
14470;SDS011;7321;50.802;4.336;2023-11-21T12:57:52;17.67;;;13.40;;
14470;SDS011;7321;50.802;4.336;2023-11-21T13:03:22;13.67;;;10.87;;
14470;SDS011;7321;50.802;4.336;2023-11-21T13:05:50;16.90;;;11.63;;
14470;SDS011;7321;50.802;4.336;2023-11-21T13:08:20;15.63;;;11.40;;
14470;SDS011;7321;50.802;4.336;2023-11-21T13:10:51;13.27;;;11.83;;
14470;SDS011;7321;50.802;4.336;2023-11-21T13:13:19;19.17;;;13.97;;
14470;SDS011;7321;50.802;4.336;2023-11-21T13:15:49;19.37;;;12.93;;
14470;SDS011;7321;50.802;4.336;2023-11-21T13:18:21;16.40;;;13.83;;
14470;SDS011;7321;50.802;4.336;2023-11-21T13:20:52;18.30;;;12.97;;
14470;SDS011;7321;50.802;4.336;2023-11-21T13:23:21;16.70;;;12.83;;
14470;SDS011;7321;50.802;4.336;2023-11-21T13:25:48;20.20;;;13.23;;
14470;SDS011;7321;50.802;4.336;2023-11-21T13:28:15;15.73;;;13.53;;
14470;SDS011;7321;50.802;4.336;2023-11-21T13:30:40;17.33;;;12.93;;
14470;SDS011;7321;50.802;4.336;2023-11-21T13:33:07;16.70;;;13.60;;
14470;SDS011;7321;50.802;4.336;2023-11-21T13:35:34;16.30;;;12.80;;
14470;SDS011;7321;50.802;4.336;2023-11-21T13:38:17;15.47;;;12.53;;
14470;SDS011;7321;50.802;4.336;2023-11-21T13:40:47;18.00;;;14.20;;
14470;SDS011;7321;50.802;4.336;2023-11-21T13:43:21;15.70;;;13.70;;
14470;SDS011;7321;50.802;4.336;2023-11-21T13:45:51;17.00;;;12.90;;
14470;SDS011;7321;50.802;4.336;2023-11-21T13:48:29;15.47;;;13.50;;
14470;SDS011;7321;50.802;4.336;2023-11-21T13:51:06;17.63;;;14.60;;
14470;SDS011;7321;50.802;4.336;2023-11-21T13:53:48;16.87;;;14.47;;
14470;SDS011;7321;50.802;4.336;2023-11-21T13:56:18;15.10;;;13.27;;
14470;SDS011;7321;50.802;4.336;2023-11-21T13:58:49;15.57;;;13.07;;
14470;SDS011;7321;50.802;4.336;2023-11-21T14:01:19;14.13;;;12.40;;
14470;SDS011;7321;50.802;4.336;2023-11-21T14:03:55;16.27;;;12.70;;
14470;SDS011;7321;50.802;4.336;2023-11-21T14:06:27;13.40;;;11.83;;
14470;SDS011;7321;50.802;4.336;2023-11-21T14:09:02;16.63;;;12.03;;
14470;SDS011;7321;50.802;4.336;2023-11-21T14:11:31;15.17;;;12.80;;
14470;SDS011;7321;50.802;4.336;2023-11-21T14:13:56;18.40;;;12.57;;
14470;SDS011;7321;50.802;4.336;2023-11-21T14:16:24;13.63;;;11.27;;
14470;SDS011;7321;50.802;4.336;2023-11-21T14:18:50;12.60;;;11.17;;
14470;SDS011;7321;50.802;4.336;2023-11-21T14:21:26;10.57;;;9.47;;
14470;SDS011;7321;50.802;4.336;2023-11-21T14:23:52;10.60;;;9.47;;
14470;SDS011;7321;50.802;4.336;2023-11-21T14:26:20;9.40;;;8.50;;
14470;SDS011;7321;50.802;4.336;2023-11-21T14:28:46;11.73;;;8.67;;
14470;SDS011;7321;50.802;4.336;2023-11-21T14:31:14;10.23;;;8.67;;
14470;SDS011;7321;50.802;4.336;2023-11-21T14:33:42;9.20;;;8.30;;
14470;SDS011;7321;50.802;4.336;2023-11-21T14:36:11;9.27;;;7.50;;
14470;SDS011;7321;50.802;4.336;2023-11-21T14:38:37;12.77;;;8.73;;
14470;SDS011;7321;50.802;4.336;2023-11-21T14:41:05;16.63;;;12.17;;
14470;SDS011;7321;50.802;4.336;2023-11-21T14:43:33;24.33;;;18.57;;
14470;SDS011;7321;50.802;4.336;2023-11-21T14:46:01;24.10;;;16.67;;
14470;SDS011;7321;50.802;4.336;2023-11-21T14:48:29;100.43;;;66.37;;
14470;SDS011;7321;50.802;4.336;2023-11-21T14:51:10;12.80;;;11.40;;
14470;SDS011;7321;50.802;4.336;2023-11-21T14:53:54;32.90;;;25.87;;
14470;SDS011;7321;50.802;4.336;2023-11-21T14:56:25;47.50;;;41.23;;
14470;SDS011;7321;50.802;4.336;2023-11-21T14:58:59;20.07;;;16.03;;
14470;SDS011;7321;50.802;4.336;2023-11-21T15:01:37;14.30;;;12.80;;
14470;SDS011;7321;50.802;4.336;2023-11-21T15:04:20;15.53;;;13.90;;
14470;SDS011;7321;50.802;4.336;2023-11-21T15:07:03;21.73;;;19.60;;